createdAt,value
2022-09-09T00:00:17.818Z,65.86914063
2022-09-09T00:01:18.250Z,66.07055664
2022-09-09T00:02:18.822Z,66.27197266
2022-09-09T00:03:19.236Z,66.23535156
2022-09-09T00:04:19.484Z,66.27197266
2022-09-09T00:05:20.037Z,66.23535156
2022-09-09T00:06:21.015Z,66.66870117
2022-09-09T00:07:51.638Z,66.66870117
2022-09-09T00:08:52.025Z,66.97387695
2022-09-09T00:09:52.483Z,66.97387695
2022-09-09T00:10:52.979Z,67.37670898
2022-09-09T00:11:53.400Z,67.67578125
2022-09-09T00:12:54.509Z,67.37670898
2022-09-09T00:13:54.896Z,67.37670898
2022-09-09T00:14:55.308Z,67.37670898
2022-09-09T00:15:55.964Z,67.27294922
2022-09-09T00:16:57.234Z,67.37670898
2022-09-09T00:17:57.629Z,67.67578125
2022-09-09T00:18:58.041Z,67.578125
2022-09-09T00:19:58.555Z,67.578125
2022-09-09T00:21:00.057Z,67.578125
2022-09-09T00:22:00.446Z,67.67578125
2022-09-09T00:23:00.845Z,67.77954102
2022-09-09T00:24:01.270Z,67.87719727
2022-09-09T00:25:01.849Z,67.87719727
2022-09-09T00:26:03.291Z,67.67578125
2022-09-09T00:27:04.238Z,67.47436523
2022-09-09T00:28:05.241Z,67.37670898
2022-09-09T00:29:05.643Z,67.0715332
2022-09-09T00:30:06.092Z,67.17529297
2022-09-09T00:31:06.589Z,67.0715332
2022-09-09T00:32:06.939Z,66.97387695
2022-09-09T00:33:09.071Z,67.17529297
2022-09-09T00:34:07.771Z,67.37670898
2022-09-09T00:35:08.266Z,67.60864258
2022-09-09T00:36:08.716Z,67.51098633
2022-09-09T00:37:09.717Z,67.70629883
2022-09-09T00:38:10.122Z,67.81005859
2022-09-09T00:39:10.523Z,67.90771484
2022-09-09T00:40:11.012Z,67.81005859
2022-09-09T00:41:11.663Z,67.81005859
2022-09-09T00:42:12.744Z,67.81005859
2022-09-09T00:43:13.153Z,67.81005859
2022-09-09T00:44:13.585Z,68.01147461
2022-09-09T00:45:13.985Z,68.10913086
2022-09-09T00:46:14.677Z,68.10913086
2022-09-09T00:47:15.745Z,68.21289063
2022-09-09T00:48:16.165Z,68.10913086
2022-09-09T00:49:16.570Z,68.21289063
2022-09-09T00:50:17.016Z,68.01147461
2022-09-09T00:51:17.504Z,68.10913086
2022-09-09T00:52:17.958Z,68.21289063
2022-09-09T00:53:18.414Z,68.41430664
2022-09-09T00:54:18.793Z,68.31054688
2022-09-09T00:55:19.794Z,68.21289063
2022-09-09T00:56:20.821Z,67.70629883
2022-09-09T00:57:51.919Z,67.51098633
2022-09-09T00:58:52.316Z,67.60864258
2022-09-09T00:59:52.725Z,67.51098633
2022-09-09T01:00:53.186Z,67.20581055
2022-09-09T01:01:53.732Z,67.51098633
2022-09-09T01:02:54.177Z,67.84057617
2022-09-09T01:03:54.515Z,68.14575195
2022-09-09T01:04:54.922Z,68.44482422
2022-09-09T01:05:55.328Z,68.75
2022-09-09T01:06:56.559Z,68.71337891
2022-09-09T01:07:58.462Z,68.71337891
2022-09-09T01:08:57.403Z,68.61572266
2022-09-09T01:09:57.859Z,68.61572266
2022-09-09T01:10:58.351Z,68.10913086
2022-09-09T01:11:58.795Z,68.07861328
2022-09-09T01:12:59.205Z,67.77954102
2022-09-09T01:13:59.650Z,67.67578125
2022-09-09T01:15:00.063Z,67.67578125
2022-09-09T01:16:02.043Z,67.67578125
2022-09-09T01:17:01.581Z,67.47436523
2022-09-09T01:18:02.005Z,67.27294922
2022-09-09T01:19:02.428Z,66.97387695
2022-09-09T01:20:02.830Z,66.97387695
2022-09-09T01:21:03.224Z,66.87011719
2022-09-09T01:22:03.679Z,67.0715332
2022-09-09T01:23:04.085Z,67.0715332
2022-09-09T01:24:05.518Z,67.17529297
2022-09-09T01:25:05.928Z,67.47436523
2022-09-09T01:26:06.335Z,67.578125
2022-09-09T01:27:07.567Z,67.87719727
2022-09-09T01:28:07.980Z,68.18237305
2022-09-09T01:29:08.395Z,68.18237305
2022-09-09T01:30:08.873Z,68.18237305
2022-09-09T01:31:09.287Z,68.48144531
2022-09-09T01:32:10.285Z,68.51196289
2022-09-09T01:33:10.694Z,68.71337891
2022-09-09T01:34:11.374Z,68.81713867
2022-09-09T01:35:11.784Z,69.11621094
2022-09-09T01:36:12.222Z,69.51904297
2022-09-09T01:37:13.551Z,69.921875
2022-09-09T01:38:13.975Z,70.66040039
2022-09-09T01:39:14.388Z,70.86181641
2022-09-09T01:40:14.901Z,71.6003418
2022-09-09T01:41:15.233Z,71.6003418
2022-09-09T01:42:15.714Z,71.70410156
2022-09-09T01:43:16.112Z,72.30834961
2022-09-09T01:44:16.558Z,72.30834961
2022-09-09T01:45:17.060Z,72.91259766
2022-09-09T01:46:17.434Z,74.12109375
2022-09-09T01:47:18.531Z,74.7253418
2022-09-09T01:48:19.022Z,74.52392578
2022-09-09T01:49:19.461Z,74.7253418
2022-09-09T01:50:50.309Z,76.3671875
2022-09-09T01:51:51.577Z,76.06811523
2022-09-09T01:52:51.991Z,76.97143555
2022-09-09T01:53:52.370Z,77.00805664
2022-09-09T01:54:52.773Z,77.00805664
2022-09-09T01:55:53.165Z,77.20947266
2022-09-09T01:56:54.544Z,77.91748047
2022-09-09T01:57:54.983Z,77.6184082
2022-09-09T01:58:55.355Z,77.91748047
2022-09-09T01:59:55.765Z,77.58178711
2022-09-09T02:00:56.223Z,77.11181641
2022-09-09T02:01:57.556Z,77.07519531
2022-09-09T02:02:57.975Z,77.07519531
2022-09-09T02:03:58.370Z,76.8737793
2022-09-09T02:04:58.773Z,76.67236328
2022-09-09T02:05:59.189Z,76.8737793
2022-09-09T02:07:00.535Z,76.8737793
2022-09-09T02:08:01.009Z,76.77001953
2022-09-09T02:09:01.411Z,76.56860352
2022-09-09T02:10:01.795Z,76.47094727
2022-09-09T02:11:02.254Z,76.8737793
2022-09-09T02:12:03.528Z,76.8737793
2022-09-09T02:13:04.009Z,77.17285156
2022-09-09T02:14:04.394Z,77.07519531
2022-09-09T02:15:04.788Z,77.38037109
2022-09-09T02:16:05.173Z,77.58178711
2022-09-09T02:17:06.558Z,77.58178711
2022-09-09T02:18:06.991Z,77.98461914
2022-09-09T02:19:07.362Z,77.88085938
2022-09-09T02:20:07.759Z,78.08227539
2022-09-09T02:21:08.184Z,77.78320313
2022-09-09T02:22:09.236Z,77.67944336
2022-09-09T02:23:09.748Z,77.47802734
2022-09-09T02:24:10.068Z,77.27661133
2022-09-09T02:25:10.453Z,77.47802734
2022-09-09T02:26:10.886Z,77.58178711
2022-09-09T02:27:12.038Z,77.38037109
2022-09-09T02:28:12.447Z,77.38037109
2022-09-09T02:29:12.835Z,77.38037109
2022-09-09T02:30:13.268Z,77.47802734
2022-09-09T02:31:13.717Z,77.07519531
2022-09-09T02:32:14.759Z,76.77001953
2022-09-09T02:33:15.230Z,76.56860352
2022-09-09T02:34:15.602Z,76.16577148
2022-09-09T02:35:16.013Z,75.83007813
2022-09-09T02:36:16.407Z,75.93383789
2022-09-09T02:37:17.511Z,75.93383789
2022-09-09T02:38:17.970Z,75.83007813
2022-09-09T02:39:18.309Z,75.73242188
2022-09-09T02:40:18.797Z,75.12817383
2022-09-09T02:41:49.729Z,75.18920898
2022-09-09T02:42:50.162Z,74.89013672
2022-09-09T02:43:50.593Z,74.89013672
2022-09-09T02:44:50.967Z,74.89013672
2022-09-09T02:45:52.297Z,75.02441406
2022-09-09T02:46:52.806Z,75.32958984
2022-09-09T02:47:53.723Z,75.42724609
2022-09-09T02:48:54.149Z,75.42724609
2022-09-09T02:49:54.519Z,75.42724609
2022-09-09T02:50:54.920Z,75.83007813
2022-09-09T02:51:55.359Z,75.32958984
2022-09-09T02:52:55.771Z,75.79345703
2022-09-09T02:53:56.192Z,75.59204102
2022-09-09T02:54:57.541Z,75.29296875
2022-09-09T02:55:57.953Z,75.390625
2022-09-09T02:56:58.342Z,75.18920898
2022-09-09T02:57:59.253Z,75.18920898
2022-09-09T02:58:59.691Z,75.390625
2022-09-09T03:00:00.048Z,75.32958984
2022-09-09T03:01:00.568Z,75.29296875
2022-09-09T03:02:01.712Z,75.09155273
2022-09-09T03:03:02.030Z,75.49438477
2022-09-09T03:04:02.493Z,75.49438477
2022-09-09T03:05:02.867Z,75.8972168
2022-09-09T03:06:03.255Z,76.30004883
2022-09-09T03:07:03.636Z,75.99487305
2022-09-09T03:08:04.050Z,75.69580078
2022-09-09T03:09:04.479Z,75.390625
2022-09-09T03:10:04.859Z,75.59204102
2022-09-09T03:11:05.282Z,75.73242188
2022-09-09T03:12:05.723Z,75.73242188
2022-09-09T03:13:06.116Z,75.83007813
2022-09-09T03:14:06.593Z,75.53100586
2022-09-09T03:15:06.945Z,75.73242188
2022-09-09T03:16:07.383Z,75.83007813
2022-09-09T03:17:07.899Z,76.03149414
2022-09-09T03:18:08.178Z,76.23291016
2022-09-09T03:19:08.584Z,76.23291016
2022-09-09T03:20:08.977Z,76.23291016
2022-09-09T03:21:09.359Z,75.62866211
2022-09-09T03:22:09.746Z,75.62866211
2022-09-09T03:23:15.512Z,75.83007813
2022-09-09T03:24:11.478Z,76.23291016
2022-09-09T03:25:11.830Z,76.63574219
2022-09-09T03:26:12.227Z,76.63574219
2022-09-09T03:27:12.625Z,76.43432617
2022-09-09T03:28:13.755Z,75.8972168
2022-09-09T03:29:14.213Z,75.99487305
2022-09-09T03:30:14.579Z,76.09863281
2022-09-09T03:31:15.003Z,76.30004883
2022-09-09T03:32:15.466Z,76.39770508
2022-09-09T03:33:15.796Z,76.19628906
2022-09-09T03:34:16.201Z,76.30004883
2022-09-09T03:35:17.539Z,76.09863281
2022-09-09T03:36:17.943Z,76.09863281
2022-09-09T03:37:18.795Z,75.69580078
2022-09-09T03:38:49.943Z,75.8972168
2022-09-09T03:39:50.444Z,76.19628906
2022-09-09T03:40:50.794Z,76.39770508
2022-09-09T03:41:52.038Z,76.30004883
2022-09-09T03:42:52.439Z,75.99487305
2022-09-09T03:43:52.836Z,75.8972168
2022-09-09T03:44:53.270Z,75.8972168
2022-09-09T03:45:53.725Z,75.93383789
2022-09-09T03:46:54.073Z,76.03149414
2022-09-09T03:47:55.261Z,76.03149414
2022-09-09T03:48:55.466Z,76.13525391
2022-09-09T03:49:55.893Z,76.33666992
2022-09-09T03:50:56.273Z,76.23291016
2022-09-09T03:51:57.548Z,76.13525391
2022-09-09T03:52:57.914Z,76.33666992
2022-09-09T03:53:58.278Z,76.67236328
2022-09-09T03:54:58.735Z,76.63574219
2022-09-09T03:55:59.095Z,76.63574219
2022-09-09T03:56:59.519Z,76.63574219
2022-09-09T03:58:00.551Z,76.23291016
2022-09-09T03:59:00.955Z,75.83007813
2022-09-09T04:00:01.391Z,75.53100586
2022-09-09T04:01:01.830Z,75.42724609
2022-09-09T04:02:03.076Z,75.53100586
2022-09-09T04:03:03.531Z,75.32958984
2022-09-09T04:04:03.842Z,75.02441406
2022-09-09T04:05:04.304Z,75.02441406
2022-09-09T04:06:04.667Z,75.02441406
2022-09-09T04:07:05.064Z,75.02441406
2022-09-09T04:08:06.045Z,75.12817383
2022-09-09T04:09:06.445Z,75.62866211
2022-09-09T04:10:06.913Z,76.03149414
2022-09-09T04:11:07.391Z,76.43432617
2022-09-09T04:12:07.701Z,76.73950195
2022-09-09T04:13:08.094Z,77.03857422
2022-09-09T04:14:08.506Z,77.14233398
2022-09-09T04:15:08.937Z,77.23999023
2022-09-09T04:16:09.399Z,77.14233398
2022-09-09T04:17:09.765Z,77.23999023
2022-09-09T04:18:10.314Z,77.34375
2022-09-09T04:19:10.532Z,77.84423828
2022-09-09T04:20:10.953Z,77.84423828
2022-09-09T04:21:11.490Z,77.84423828
2022-09-09T04:22:11.871Z,77.84423828
2022-09-09T04:23:12.273Z,77.84423828
2022-09-09T04:24:12.679Z,77.44140625
2022-09-09T04:25:13.085Z,77.23999023
2022-09-09T04:26:14.279Z,77.03857422
2022-09-09T04:27:14.695Z,77.03857422
2022-09-09T04:28:16.044Z,77.23999023
2022-09-09T04:29:16.492Z,77.14233398
2022-09-09T04:30:16.894Z,77.34375
2022-09-09T04:31:17.415Z,77.64282227
2022-09-09T04:32:18.095Z,77.74658203
2022-09-09T04:33:48.722Z,77.44140625
2022-09-09T04:34:49.132Z,77.23999023
2022-09-09T04:35:50.106Z,77.23999023
2022-09-09T04:36:50.504Z,77.34375
2022-09-09T04:37:51.755Z,77.23999023
2022-09-09T04:38:52.766Z,77.54516602
2022-09-09T04:39:53.224Z,77.64282227
2022-09-09T04:40:53.599Z,77.64282227
2022-09-09T04:41:53.976Z,77.74658203
2022-09-09T04:42:54.370Z,77.94799805
2022-09-09T04:43:54.786Z,78.0456543
2022-09-09T04:44:55.177Z,77.74658203
2022-09-09T04:45:55.632Z,77.54516602
2022-09-09T04:46:55.991Z,77.54516602
2022-09-09T04:47:57.061Z,77.54516602
2022-09-09T04:48:57.443Z,77.14233398
2022-09-09T04:49:58.747Z,77.23999023
2022-09-09T04:50:59.207Z,77.54516602
2022-09-09T04:51:59.592Z,77.54516602
2022-09-09T04:52:59.991Z,77.44140625
2022-09-09T04:54:00.380Z,77.44140625
2022-09-09T04:55:01.559Z,77.54516602
2022-09-09T04:56:02.058Z,77.64282227
2022-09-09T04:57:02.420Z,77.84423828
2022-09-09T04:58:03.577Z,77.94799805
2022-09-09T04:59:03.999Z,77.84423828
2022-09-09T05:00:05.058Z,78.0456543
2022-09-09T05:01:05.694Z,78.14941406
2022-09-09T05:02:05.866Z,78.0456543
2022-09-09T05:03:06.258Z,78.0456543
2022-09-09T05:04:06.795Z,78.0456543
2022-09-09T05:05:07.148Z,78.24707031
2022-09-09T05:06:08.290Z,78.21044922
2022-09-09T05:07:08.660Z,78.21044922
2022-09-09T05:08:09.628Z,78.41186523
2022-09-09T05:09:10.083Z,78.41186523
2022-09-09T05:10:10.510Z,78.21044922
2022-09-09T05:11:10.973Z,78.10668945
2022-09-09T05:12:11.506Z,78.30810547
2022-09-09T05:13:12.556Z,78.41186523
2022-09-09T05:14:13.057Z,78.50952148
2022-09-09T05:15:13.463Z,78.30810547
2022-09-09T05:16:14.026Z,77.70385742
2022-09-09T05:17:14.299Z,77.50244141
2022-09-09T05:18:15.574Z,77.40478516
2022-09-09T05:19:16.158Z,77.50244141
2022-09-09T05:20:17.583Z,77.70385742
2022-09-09T05:21:17.623Z,77.70385742
2022-09-09T05:22:48.210Z,77.70385742
2022-09-09T05:23:48.650Z,77.40478516
2022-09-09T05:24:49.072Z,77.20336914
2022-09-09T05:25:49.533Z,77.40478516
2022-09-09T05:26:50.091Z,77.60620117
2022-09-09T05:27:50.357Z,77.60620117
2022-09-09T05:28:50.767Z,77.50244141
2022-09-09T05:29:51.234Z,77.50244141
2022-09-09T05:30:51.683Z,77.60620117
2022-09-09T05:31:52.224Z,77.70385742
2022-09-09T05:32:52.564Z,77.50244141
2022-09-09T05:33:52.961Z,77.60620117
2022-09-09T05:34:53.424Z,77.70385742
2022-09-09T05:35:54.577Z,77.60620117
2022-09-09T05:36:55.037Z,77.40478516
2022-09-09T05:37:55.467Z,77.60620117
2022-09-09T05:38:56.767Z,77.70385742
2022-09-09T05:39:57.327Z,77.60620117
2022-09-09T05:40:57.663Z,77.40478516
2022-09-09T05:41:58.144Z,77.30712891
2022-09-09T05:42:58.578Z,77.10571289
2022-09-09T05:43:59.000Z,76.90429688
2022-09-09T05:44:59.495Z,76.80053711
2022-09-09T05:45:59.941Z,76.90429688
2022-09-09T05:47:00.435Z,77.00195313
2022-09-09T05:48:00.764Z,76.90429688
2022-09-09T05:49:01.826Z,76.90429688
2022-09-09T05:50:02.385Z,77.10571289
2022-09-09T05:51:02.699Z,76.70288086
2022-09-09T05:52:03.140Z,76.70288086
2022-09-09T05:53:03.545Z,76.50146484
2022-09-09T05:54:03.961Z,76.30004883
2022-09-09T05:55:04.375Z,76.30004883
2022-09-09T05:56:05.341Z,76.19628906
2022-09-09T05:57:05.754Z,76.39770508
2022-09-09T05:58:06.147Z,76.50146484
2022-09-09T05:59:07.304Z,76.50146484
2022-09-09T06:00:07.835Z,76.53808594
2022-09-09T06:01:08.268Z,76.73950195
2022-09-09T06:02:09.659Z,76.8371582
2022-09-09T06:03:10.052Z,77.03857422
2022-09-09T06:04:10.395Z,77.03857422
2022-09-09T06:05:11.010Z,77.03857422
2022-09-09T06:06:11.487Z,77.03857422
2022-09-09T06:07:12.603Z,77.14233398
2022-09-09T06:08:13.005Z,77.34375
2022-09-09T06:09:14.274Z,77.54516602
2022-09-09T06:10:14.716Z,77.47802734
2022-09-09T06:11:15.186Z,77.67944336
2022-09-09T06:12:15.639Z,77.88085938
2022-09-09T06:13:16.052Z,78.18603516
2022-09-09T06:14:16.446Z,77.98461914
2022-09-09T06:15:47.362Z,78.18603516
2022-09-09T06:16:47.763Z,78.0456543
2022-09-09T06:17:48.238Z,77.74658203
2022-09-09T06:18:49.571Z,77.44140625
2022-09-09T06:19:49.992Z,77.34375
2022-09-09T06:20:50.482Z,77.44140625
2022-09-09T06:21:50.922Z,77.14233398
2022-09-09T06:22:51.380Z,76.94091797
2022-09-09T06:23:51.768Z,77.03857422
2022-09-09T06:24:52.166Z,76.94091797
2022-09-09T06:25:53.629Z,76.94091797
2022-09-09T06:26:54.064Z,77.10571289
2022-09-09T06:27:54.537Z,77.10571289
2022-09-09T06:28:55.579Z,77.00195313
2022-09-09T06:29:55.983Z,77.10571289
2022-09-09T06:30:56.441Z,77.20336914
2022-09-09T06:31:56.976Z,77.10571289
2022-09-09T06:32:57.360Z,77.10571289
2022-09-09T06:33:57.728Z,77.10571289
2022-09-09T06:34:58.152Z,77.10571289
2022-09-09T06:35:59.575Z,76.80053711
2022-09-09T06:37:00.054Z,76.70288086
2022-09-09T06:38:01.319Z,76.80053711
2022-09-09T06:39:01.700Z,77.10571289
2022-09-09T06:40:02.290Z,77.00195313
2022-09-09T06:41:02.595Z,76.80053711
2022-09-09T06:42:03.094Z,76.66625977
2022-09-09T06:43:03.505Z,76.80053711
2022-09-09T06:44:03.917Z,76.36108398
2022-09-09T06:45:04.338Z,75.8605957
2022-09-09T06:46:04.744Z,75.65917969
2022-09-09T06:47:05.329Z,75.65917969
2022-09-09T06:48:05.715Z,75.35400391
2022-09-09T06:49:06.148Z,75.15258789
2022-09-09T06:50:06.616Z,75.15258789
2022-09-09T06:51:07.263Z,75.15258789
2022-09-09T06:52:07.524Z,74.74975586
2022-09-09T06:53:07.998Z,74.65209961
2022-09-09T06:54:08.403Z,74.54833984
2022-09-09T06:55:08.830Z,74.74975586
2022-09-09T06:56:09.796Z,74.54833984
2022-09-09T06:57:27.130Z,74.85351563
2022-09-09T06:58:11.541Z,75.15258789
2022-09-09T06:59:12.591Z,74.14550781
2022-09-09T07:00:13.000Z,73.91357422
2022-09-09T07:01:13.476Z,74.21264648
2022-09-09T07:02:14.690Z,74.71923828
2022-09-09T07:03:15.115Z,74.61547852
2022-09-09T07:04:15.512Z,74.61547852
2022-09-09T07:05:16.373Z,73.98071289
2022-09-09T07:06:47.172Z,74.07836914
2022-09-09T07:07:47.467Z,73.27270508
2022-09-09T07:08:55.928Z,71.96655273
2022-09-09T07:09:49.322Z,72.36938477
2022-09-09T07:10:49.737Z,72.27172852
2022-09-09T07:11:50.132Z,71.96655273
2022-09-09T07:12:50.571Z,71.96655273
2022-09-09T07:13:51.055Z,71.49658203
2022-09-09T07:14:51.537Z,71.39892578
2022-09-09T07:15:51.968Z,71.80175781
2022-09-09T07:16:55.446Z,72.00317383
2022-09-09T07:17:53.584Z,72.30224609
2022-09-09T07:18:54.056Z,72.20458984
2022-09-09T07:19:55.345Z,71.69799805
2022-09-09T07:20:55.742Z,72.0703125
2022-09-09T07:21:56.295Z,71.69799805
2022-09-09T07:22:56.577Z,71.6003418
2022-09-09T07:23:57.001Z,71.89941406
2022-09-09T07:24:57.439Z,72.00317383
2022-09-09T07:25:58.586Z,72.10083008
2022-09-09T07:26:58.974Z,72.10083008
2022-09-09T07:27:59.404Z,71.80175781
2022-09-09T07:29:00.623Z,72.16796875
2022-09-09T07:30:01.033Z,72.27172852
2022-09-09T07:31:01.490Z,72.27172852
2022-09-09T07:32:01.883Z,71.76513672
2022-09-09T07:33:03.320Z,71.76513672
2022-09-09T07:34:03.830Z,71.63085938
2022-09-09T07:35:04.192Z,71.83227539
2022-09-09T07:36:04.603Z,72.03369141
2022-09-09T07:37:05.011Z,71.83227539
2022-09-09T07:38:06.278Z,71.42944336
2022-09-09T07:39:07.625Z,71.6003418
2022-09-09T07:40:08.106Z,71.19750977
2022-09-09T07:41:08.469Z,71.49658203
2022-09-09T07:42:08.878Z,71.6003418
2022-09-09T07:43:09.263Z,71.99707031
2022-09-09T07:44:09.810Z,71.69799805
2022-09-09T07:45:10.193Z,71.7956543
2022-09-09T07:46:10.690Z,72.10083008
2022-09-09T07:47:11.041Z,72.10083008
2022-09-09T07:48:11.550Z,70.49560547
2022-09-09T07:49:12.023Z,71.09375
2022-09-09T07:50:13.311Z,70.92895508
2022-09-09T07:51:13.753Z,69.39086914
2022-09-09T07:52:18.104Z,69.2199707
2022-09-09T07:53:46.110Z,68.92089844
2022-09-09T07:54:46.609Z,68.71948242
2022-09-09T07:55:47.002Z,69.32373047
2022-09-09T07:56:47.429Z,68.92089844
2022-09-09T07:57:48.838Z,69.25048828
2022-09-09T07:58:49.298Z,69.55566406
2022-09-09T07:59:50.365Z,69.4519043
2022-09-09T08:00:50.779Z,70.05615234
2022-09-09T08:01:51.241Z,70.36132813
2022-09-09T08:02:51.623Z,70.25756836
2022-09-09T08:03:56.423Z,70.05615234
2022-09-09T08:04:52.511Z,70.19042969
2022-09-09T08:05:52.921Z,70.79467773
2022-09-09T08:06:53.353Z,71.6003418
2022-09-09T08:07:53.860Z,71.49658203
2022-09-09T08:08:54.191Z,70.86181641
2022-09-09T08:09:55.409Z,71.39892578
2022-09-09T08:10:55.810Z,71.49658203
2022-09-09T08:11:56.221Z,71.89941406
2022-09-09T08:13:15.220Z,71.39892578
2022-09-09T08:14:01.626Z,71.89941406
2022-09-09T08:14:57.536Z,72.10083008
2022-09-09T08:15:58.005Z,72.20458984
2022-09-09T08:16:58.417Z,72.10083008
2022-09-09T08:17:58.845Z,71.80175781
2022-09-09T08:18:59.286Z,70.99609375
2022-09-09T08:20:00.383Z,71.09375
2022-09-09T08:21:00.796Z,71.49658203
2022-09-09T08:22:01.266Z,71.39892578
2022-09-09T08:23:01.682Z,71.49658203
2022-09-09T08:24:02.156Z,71.29516602
2022-09-09T08:25:02.645Z,71.29516602
2022-09-09T08:26:03.597Z,71.49658203
2022-09-09T08:27:04.022Z,71.49658203
2022-09-09T08:28:04.465Z,71.19750977
2022-09-09T08:29:04.864Z,71.26464844
2022-09-09T08:30:05.877Z,71.16088867
2022-09-09T08:31:06.403Z,69.15283203
2022-09-09T08:32:06.732Z,68.75
2022-09-09T08:33:08.100Z,68.85375977
2022-09-09T08:34:08.519Z,68.85375977
2022-09-09T08:35:08.934Z,67.74291992
2022-09-09T08:36:09.386Z,67.41333008
2022-09-09T08:37:09.810Z,66.80908203
2022-09-09T08:38:11.047Z,66.90673828
2022-09-09T08:39:10.662Z,66.20483398
2022-09-09T08:40:11.454Z,66.40625
2022-09-09T08:41:11.821Z,66.80908203
2022-09-09T08:42:12.266Z,66.60766602
2022-09-09T08:43:12.685Z,67.01049805
2022-09-09T08:44:13.101Z,67.01049805
2022-09-09T08:45:13.561Z,67.21191406
2022-09-09T08:46:14.024Z,66.90673828
2022-09-09T08:47:14.447Z,66.90673828
2022-09-09T08:48:45.399Z,66.60766602
2022-09-09T08:49:46.634Z,66.80908203
2022-09-09T08:50:47.116Z,66.80908203
2022-09-09T08:51:47.541Z,67.1081543
2022-09-09T08:52:47.971Z,67.21191406
2022-09-09T08:53:48.358Z,67.14477539
2022-09-09T08:54:52.464Z,67.64526367
2022-09-09T08:55:49.194Z,67.24243164
2022-09-09T08:56:50.353Z,67.74291992
2022-09-09T08:57:50.799Z,68.14575195
2022-09-09T08:58:51.815Z,67.14477539
2022-09-09T08:59:53.122Z,66.77246094
2022-09-09T09:00:53.617Z,66.36962891
2022-09-09T09:01:54.058Z,66.47338867
2022-09-09T09:02:54.415Z,66.07055664
2022-09-09T09:03:54.825Z,65.96679688
2022-09-09T09:04:56.164Z,65.86914063
2022-09-09T09:05:56.576Z,66.07055664
2022-09-09T09:06:57.609Z,66.23535156
2022-09-09T09:07:58.040Z,65.83862305
2022-09-09T09:08:58.632Z,65.63720703
2022-09-09T09:09:59.601Z,65.234375
2022-09-09T09:11:00.078Z,64.7277832
2022-09-09T09:12:00.499Z,65.33203125
2022-09-09T09:13:00.914Z,63.92822266
2022-09-09T09:14:01.323Z,64.52636719
2022-09-09T09:15:01.723Z,64.83154297
2022-09-09T09:16:02.256Z,64.12963867
2022-09-09T09:17:02.674Z,64.45922852
2022-09-09T09:18:03.105Z,64.83154297
2022-09-09T09:19:03.542Z,65.03295898
2022-09-09T09:20:04.610Z,64.9597168
2022-09-09T09:21:05.057Z,64.66064453
2022-09-09T09:22:05.525Z,64.9597168
2022-09-09T09:23:05.957Z,65.26489258
2022-09-09T09:24:06.400Z,65.66772461
2022-09-09T09:25:07.314Z,65.26489258
2022-09-09T09:26:07.725Z,64.2578125
2022-09-09T09:27:08.208Z,63.5559082
2022-09-09T09:28:09.615Z,63.15307617
2022-09-09T09:29:10.055Z,62.95166016
2022-09-09T09:30:24.261Z,62.95166016
2022-09-09T09:31:11.991Z,62.95166016
2022-09-09T09:32:12.331Z,63.04931641
2022-09-09T09:33:12.752Z,63.35449219
2022-09-09T09:34:14.141Z,63.5559082
2022-09-09T09:35:44.956Z,63.62304688
2022-09-09T09:36:45.310Z,63.72680664
2022-09-09T09:40:03.772Z,63.72680664
2022-09-09T09:40:48.567Z,64.02587891
2022-09-09T09:41:49.156Z,63.52539063
2022-09-09T09:42:50.398Z,63.89770508
2022-09-09T09:43:50.889Z,63.39111328
2022-09-09T09:44:51.328Z,63.69628906
2022-09-09T09:46:13.874Z,63.89770508
2022-09-09T09:46:52.326Z,63.5925293
2022-09-09T09:47:55.470Z,63.79394531
2022-09-09T09:48:53.188Z,63.29345703
2022-09-09T09:49:54.133Z,63.18969727
2022-09-09T09:50:54.527Z,63.18969727
2022-09-09T09:51:55.020Z,62.96386719
2022-09-09T09:52:55.471Z,63.06152344
2022-09-09T09:53:55.938Z,62.45727539
2022-09-09T09:54:56.359Z,62.25585938
2022-09-09T09:55:56.850Z,62.76245117
2022-09-09T09:56:57.491Z,62.56103516
2022-09-09T09:57:58.468Z,62.23144531
2022-09-09T09:58:58.862Z,61.92626953
2022-09-09T09:59:59.307Z,61.62719727
2022-09-09T10:01:00.343Z,61.5234375
2022-09-09T10:02:00.869Z,61.328125
2022-09-09T10:03:01.301Z,61.62719727
2022-09-09T10:04:01.785Z,61.12670898
2022-09-09T10:05:02.383Z,61.02294922
2022-09-09T10:06:02.734Z,61.35253906
2022-09-09T10:07:03.274Z,62.06054688
2022-09-09T10:08:03.722Z,61.5234375
2022-09-09T10:09:04.165Z,61.62719727
2022-09-09T10:10:05.143Z,61.85913086
2022-09-09T10:11:05.560Z,61.55395508
2022-09-09T10:12:06.048Z,61.85913086
2022-09-09T10:13:06.577Z,61.85913086
2022-09-09T10:14:06.975Z,61.45629883
2022-09-09T10:15:07.400Z,61.65771484
2022-09-09T10:16:07.851Z,61.65771484
2022-09-09T10:17:08.257Z,61.95678711
2022-09-09T10:18:08.735Z,61.65771484
2022-09-09T10:19:10.135Z,62.08496094
2022-09-09T10:20:10.749Z,61.68823242
2022-09-09T10:21:11.630Z,61.78588867
2022-09-09T10:22:12.159Z,61.88354492
2022-09-09T10:23:12.632Z,61.88354492
2022-09-09T10:24:13.083Z,61.38305664
2022-09-09T10:25:13.875Z,61.38305664
2022-09-09T10:26:44.479Z,60.77880859
2022-09-09T10:27:45.007Z,60.88256836
2022-09-09T10:28:45.490Z,60.88256836
2022-09-09T10:29:45.950Z,61.38305664
2022-09-09T10:30:47.365Z,61.08398438
2022-09-09T10:31:47.717Z,61.38305664
2022-09-09T10:32:48.270Z,61.58447266
2022-09-09T10:33:48.657Z,61.68823242
2022-09-09T10:34:49.112Z,61.9140625
2022-09-09T10:35:50.338Z,61.71264648
2022-09-09T10:36:50.771Z,61.51123047
2022-09-09T10:37:52.179Z,62.01782227
2022-09-09T10:38:52.591Z,62.31689453
2022-09-09T10:39:53.042Z,62.11547852
2022-09-09T10:40:54.367Z,62.31689453
2022-09-09T10:41:54.821Z,62.39013672
2022-09-09T10:42:56.186Z,62.39013672
2022-09-09T10:44:00.254Z,61.48681641
2022-09-09T10:44:56.965Z,61.38305664
2022-09-09T10:45:57.574Z,60.44921875
2022-09-09T10:47:01.785Z,61.0534668
2022-09-09T10:47:58.383Z,60.44921875
2022-09-09T10:48:58.787Z,59.94873047
2022-09-09T10:49:59.200Z,59.82055664
2022-09-09T10:51:03.746Z,60.11962891
2022-09-09T10:52:00.831Z,59.91821289
2022-09-09T10:53:01.284Z,60.22338867
2022-09-09T10:54:02.626Z,59.61914063
2022-09-09T10:55:03.048Z,59.4909668
2022-09-09T10:56:03.507Z,59.08813477
2022-09-09T10:57:04.871Z,59.19189453
2022-09-09T10:58:05.320Z,58.58764648
2022-09-09T10:59:05.691Z,58.28857422
2022-09-09T11:00:06.102Z,57.78808594
2022-09-09T11:01:07.147Z,57.58666992
2022-09-09T11:02:07.597Z,57.78808594
2022-09-09T11:03:08.075Z,57.68432617
2022-09-09T11:04:08.553Z,57.88574219
2022-09-09T11:05:08.891Z,58.18481445